createdAt,value
2023-04-25T00:00:18.536Z,1000.45
2023-04-25T00:01:18.523Z,1000.49
2023-04-25T00:02:18.606Z,1000.44
2023-04-25T00:03:18.694Z,1000.45
2023-04-25T00:04:18.631Z,1000.48
2023-04-25T00:05:18.558Z,1000.45
2023-04-25T00:06:18.464Z,1000.42
2023-04-25T00:07:18.474Z,1000.43
2023-04-25T00:08:18.458Z,1000.44
2023-04-25T00:09:18.441Z,1000.44
2023-04-25T00:10:18.421Z,1000.41
2023-04-25T00:11:18.449Z,1000.43
2023-04-25T00:12:18.416Z,1000.37
2023-04-25T00:13:18.382Z,1000.42
2023-04-25T00:14:18.397Z,1000.41
2023-04-25T00:15:18.395Z,1000.43
2023-04-25T00:16:18.429Z,1000.39
2023-04-25T00:17:18.344Z,1000.43
2023-04-25T00:18:18.364Z,1000.40
2023-04-25T00:19:18.319Z,1000.43
2023-04-25T00:20:18.314Z,1000.41
2023-04-25T00:21:18.316Z,1000.43
2023-04-25T00:22:18.309Z,1000.39
2023-04-25T00:23:18.279Z,1000.43
2023-04-25T00:24:18.272Z,1000.32
2023-04-25T00:25:18.272Z,1000.39
2023-04-25T00:26:18.244Z,1000.37
2023-04-25T00:27:18.273Z,1000.35
2023-04-25T00:28:18.221Z,1000.42
2023-04-25T00:29:18.220Z,1000.46
2023-04-25T00:30:18.203Z,1000.36
2023-04-25T00:31:18.257Z,1000.38
2023-04-25T00:32:18.176Z,1000.40
2023-04-25T00:33:18.165Z,1000.51
2023-04-25T00:34:18.150Z,1000.43
2023-04-25T00:35:18.211Z,1000.44
2023-04-25T00:36:18.177Z,1000.41
2023-04-25T00:37:18.130Z,1000.42
2023-04-25T00:38:18.125Z,1000.44
2023-04-25T00:39:18.094Z,1000.38
2023-04-25T00:40:18.101Z,1000.38
2023-04-25T00:41:18.079Z,1000.38
2023-04-25T00:42:18.092Z,1000.37
2023-04-25T00:43:18.068Z,1000.35
2023-04-25T00:44:18.055Z,1000.35
2023-04-25T00:45:18.092Z,1000.34
2023-04-25T00:46:18.049Z,1000.34
2023-04-25T00:47:18.047Z,1000.37
2023-04-25T00:48:17.994Z,1000.31
2023-04-25T00:49:17.984Z,1000.37
2023-04-25T00:50:17.995Z,1000.36
2023-04-25T00:51:17.957Z,1000.38
2023-04-25T00:52:18.025Z,1000.34
2023-04-25T00:53:17.972Z,1000.37
2023-04-25T00:54:17.929Z,1000.35
2023-04-25T00:55:17.964Z,1000.39
2023-04-25T00:56:17.931Z,1000.32
2023-04-25T00:57:17.891Z,1000.32
2023-04-25T00:58:17.879Z,1000.39
2023-04-25T00:59:17.892Z,1000.34
2023-04-25T01:00:17.874Z,1000.34
2023-04-25T01:01:17.892Z,1000.33
2023-04-25T01:02:17.938Z,1000.32
2023-04-25T01:03:17.935Z,1000.33
2023-04-25T01:04:18.064Z,1000.29
2023-04-25T01:05:17.813Z,1000.29
2023-04-25T01:06:17.793Z,1000.30
2023-04-25T01:07:17.788Z,1000.28
2023-04-25T01:08:17.786Z,1000.30
2023-04-25T01:09:17.757Z,1000.26
2023-04-25T01:10:17.759Z,1000.22
2023-04-25T01:11:17.760Z,1000.23
2023-04-25T01:12:17.722Z,1000.28
2023-04-25T01:13:17.711Z,1000.24
2023-04-25T01:14:17.712Z,1000.24
2023-04-25T01:15:17.719Z,1000.20
2023-04-25T01:16:17.707Z,1000.19
2023-04-25T01:17:17.670Z,1000.24
2023-04-25T01:18:17.672Z,1000.25
2023-04-25T01:19:17.641Z,1000.23
2023-04-25T01:20:17.656Z,1000.16
2023-04-25T01:21:17.622Z,1000.11
2023-04-25T01:22:17.637Z,1000.15
2023-04-25T01:23:18.241Z,1000.16
2023-04-25T01:24:17.598Z,1000.17
2023-04-25T01:25:17.601Z,1000.18
2023-04-25T01:26:17.566Z,1000.18
2023-04-25T01:27:17.553Z,1000.22
2023-04-25T01:28:17.550Z,1000.14
2023-04-25T01:29:17.533Z,1000.22
2023-04-25T01:30:17.536Z,1000.20
2023-04-25T01:31:17.550Z,1000.19
2023-04-25T01:32:17.562Z,1000.23
2023-04-25T01:33:17.498Z,1000.23
2023-04-25T01:34:17.513Z,1000.25
2023-04-25T01:35:17.466Z,1000.23
2023-04-25T01:36:17.466Z,1000.25
2023-04-25T01:37:17.452Z,1000.18
2023-04-25T01:38:17.439Z,1000.22
2023-04-25T01:39:17.421Z,1000.18
2023-04-25T01:40:17.415Z,1000.24
2023-04-25T01:41:17.416Z,1000.19
2023-04-25T01:42:17.387Z,1000.28
2023-04-25T01:43:17.377Z,1000.24
2023-04-25T01:44:17.382Z,1000.24
2023-04-25T01:45:17.366Z,1000.24
2023-04-25T01:46:17.452Z,1000.18
2023-04-25T01:47:17.377Z,1000.22
2023-04-25T01:48:17.402Z,1000.23
2023-04-25T01:49:17.455Z,1000.21
2023-04-25T01:50:17.317Z,1000.26
2023-04-25T01:51:17.286Z,1000.26
2023-04-25T01:52:17.288Z,1000.32
2023-04-25T01:53:17.282Z,1000.22
2023-04-25T01:54:17.253Z,1000.22
2023-04-25T01:55:17.244Z,1000.24
2023-04-25T01:56:17.248Z,1000.21
2023-04-25T01:57:17.244Z,1000.20
2023-04-25T01:58:17.718Z,1000.24
2023-04-25T01:59:17.199Z,1000.23
2023-04-25T02:00:17.189Z,1000.23
2023-04-25T02:01:17.221Z,1000.25
2023-04-25T02:02:17.227Z,1000.24
2023-04-25T02:03:17.357Z,1000.25
2023-04-25T02:04:17.473Z,1000.28
2023-04-25T02:05:17.131Z,1000.25
2023-04-25T02:06:17.136Z,1000.28
2023-04-25T02:07:17.108Z,1000.25
2023-04-25T02:08:17.200Z,1000.26
2023-04-25T02:09:17.089Z,1000.21
2023-04-25T02:10:17.100Z,1000.24
2023-04-25T02:11:17.062Z,1000.28
2023-04-25T02:12:17.080Z,1000.24
2023-04-25T02:13:17.052Z,1000.27
2023-04-25T02:14:17.044Z,1000.28
2023-04-25T02:15:17.020Z,1000.21
2023-04-25T02:16:17.095Z,1000.26
2023-04-25T02:17:17.074Z,1000.29
2023-04-25T02:18:17.031Z,1000.29
2023-04-25T02:19:17.013Z,1000.24
2023-04-25T02:20:16.975Z,1000.31
2023-04-25T02:21:16.954Z,1000.33
2023-04-25T02:22:16.937Z,1000.32
2023-04-25T02:23:16.932Z,1000.29
2023-04-25T02:24:16.952Z,1000.30
2023-04-25T02:25:17.109Z,1000.29
2023-04-25T02:26:16.911Z,1000.24
2023-04-25T02:27:16.905Z,1000.28
2023-04-25T02:28:16.871Z,1000.28
2023-04-25T02:29:16.871Z,1000.28
2023-04-25T02:30:16.865Z,1000.32
2023-04-25T02:31:16.855Z,1000.25
2023-04-25T02:32:16.834Z,1000.29
2023-04-25T02:33:16.872Z,1000.26
2023-04-25T02:34:16.830Z,1000.28
2023-04-25T02:35:16.811Z,1000.28
2023-04-25T02:36:16.785Z,1000.28
2023-04-25T02:37:16.800Z,1000.33
2023-04-25T02:38:16.777Z,1000.30
2023-04-25T02:39:16.755Z,1000.30
2023-04-25T02:40:16.756Z,1000.26
2023-04-25T02:41:16.733Z,1000.23
2023-04-25T02:42:16.734Z,1000.27
2023-04-25T02:43:16.743Z,1000.25
2023-04-25T02:44:16.699Z,1000.26
2023-04-25T02:45:16.685Z,1000.24
2023-04-25T02:46:22.918Z,1000.27
2023-04-25T02:47:17.667Z,1000.25
2023-04-25T02:48:16.694Z,1000.25
2023-04-25T02:49:16.643Z,1000.30
2023-04-25T02:50:16.630Z,1000.26
2023-04-25T02:51:17.285Z,1000.26
2023-04-25T02:52:16.617Z,1000.27
2023-04-25T02:53:16.607Z,1000.28
2023-04-25T02:54:16.586Z,1000.25
2023-04-25T02:55:16.590Z,1000.23
2023-04-25T02:56:16.563Z,1000.29
2023-04-25T02:57:16.561Z,1000.23
2023-04-25T02:58:16.544Z,1000.24
2023-04-25T02:59:16.528Z,1000.26
2023-04-25T03:00:16.514Z,1000.29
2023-04-25T03:01:16.579Z,1000.17
2023-04-25T03:02:16.593Z,1000.25
2023-04-25T03:03:16.563Z,1000.22
2023-04-25T03:04:16.538Z,1000.22
2023-04-25T03:05:23.493Z,1000.27
2023-04-25T03:06:16.487Z,1000.30
2023-04-25T03:07:16.454Z,1000.21
2023-04-25T03:08:16.426Z,1000.26
2023-04-25T03:09:16.424Z,1000.22
2023-04-25T03:10:16.565Z,1000.20
2023-04-25T03:11:16.406Z,1000.19
2023-04-25T03:12:16.601Z,1000.18
2023-04-25T03:13:16.376Z,1000.18
2023-04-25T03:14:16.351Z,1000.22
2023-04-25T03:15:16.346Z,1000.17
2023-04-25T03:16:16.381Z,1000.16
2023-04-25T03:17:16.339Z,1000.16
2023-04-25T03:18:16.308Z,1000.20
2023-04-25T03:19:16.338Z,1000.17
2023-04-25T03:20:16.301Z,1000.22
2023-04-25T03:21:16.278Z,1000.20
2023-04-25T03:22:16.266Z,1000.25
2023-04-25T03:23:16.274Z,1000.24
2023-04-25T03:24:16.267Z,1000.26
2023-04-25T03:25:16.251Z,1000.25
2023-04-25T03:26:16.326Z,1000.23
2023-04-25T03:27:16.205Z,1000.27
2023-04-25T03:28:16.198Z,1000.24
2023-04-25T03:29:16.232Z,1000.22
2023-04-25T03:30:16.187Z,1000.22
2023-04-25T03:31:16.162Z,1000.22
2023-04-25T03:32:16.174Z,1000.21
2023-04-25T03:33:16.155Z,1000.22
2023-04-25T03:34:16.145Z,1000.22
2023-04-25T03:35:16.122Z,1000.21
2023-04-25T03:36:16.112Z,1000.22
2023-04-25T03:37:16.094Z,1000.24
2023-04-25T03:38:16.095Z,1000.25
2023-04-25T03:39:16.111Z,1000.26
2023-04-25T03:40:16.058Z,1000.22
2023-04-25T03:41:16.057Z,1000.22
2023-04-25T03:42:16.041Z,1000.32
2023-04-25T03:43:16.049Z,1000.32
2023-04-25T03:44:16.015Z,1000.28
2023-04-25T03:45:16.053Z,1000.30
2023-04-25T03:46:16.044Z,1000.27
2023-04-25T03:47:15.984Z,1000.27
2023-04-25T03:48:15.987Z,1000.24
2023-04-25T03:49:18.595Z,1000.26
2023-04-25T03:50:15.957Z,1000.30
2023-04-25T03:51:15.959Z,1000.32
2023-04-25T03:52:15.976Z,1000.35
2023-04-25T03:53:15.913Z,1000.32
2023-04-25T03:54:15.916Z,1000.30
2023-04-25T03:55:15.916Z,1000.34
2023-04-25T03:56:15.889Z,1000.35
2023-04-25T03:57:15.872Z,1000.35
2023-04-25T03:58:15.876Z,1000.33
2023-04-25T03:59:15.849Z,1000.33
2023-04-25T04:00:15.835Z,1000.37
2023-04-25T04:01:15.863Z,1000.40
2023-04-25T04:02:16.187Z,1000.42
2023-04-25T04:03:15.939Z,1000.41
2023-04-25T04:04:16.097Z,1000.40
2023-04-25T04:05:15.936Z,1000.43
2023-04-25T04:06:15.766Z,1000.47
2023-04-25T04:07:15.774Z,1000.43
2023-04-25T04:08:15.749Z,1000.43
2023-04-25T04:09:15.735Z,1000.49
2023-04-25T04:10:15.727Z,1000.41
2023-04-25T04:11:15.765Z,1000.43
2023-04-25T04:12:15.703Z,1000.49
2023-04-25T04:13:15.696Z,1000.48
2023-04-25T04:14:15.695Z,1000.53
2023-04-25T04:15:15.674Z,1000.52
2023-04-25T04:16:15.664Z,1000.53
2023-04-25T04:17:15.646Z,1000.47
2023-04-25T04:18:15.649Z,1000.50
2023-04-25T04:19:15.629Z,1000.50
2023-04-25T04:20:15.614Z,1000.50
2023-04-25T04:21:15.599Z,1000.51
2023-04-25T04:22:15.590Z,1000.49
2023-04-25T04:23:15.597Z,1000.46
2023-04-25T04:24:15.586Z,1000.49
2023-04-25T04:25:15.557Z,1000.49
2023-04-25T04:26:15.541Z,1000.46
2023-04-25T04:27:15.554Z,1000.47
2023-04-25T04:28:15.544Z,1000.52
2023-04-25T04:29:15.512Z,1000.55
2023-04-25T04:30:15.545Z,1000.55
2023-04-25T04:31:15.553Z,1000.55
2023-04-25T04:32:15.495Z,1000.58
2023-04-25T04:33:15.482Z,1000.56
2023-04-25T04:34:15.453Z,1000.60
2023-04-25T04:35:15.445Z,1000.64
2023-04-25T04:36:15.435Z,1000.62
2023-04-25T04:37:15.438Z,1000.60
2023-04-25T04:38:15.434Z,1000.66
2023-04-25T04:39:15.401Z,1000.72
2023-04-25T04:40:15.392Z,1000.63
2023-04-25T04:41:15.386Z,1000.61
2023-04-25T04:42:15.365Z,1000.63
2023-04-25T04:43:15.372Z,1000.58
2023-04-25T04:44:15.359Z,1000.60
2023-04-25T04:45:15.340Z,1000.60
2023-04-25T04:46:15.346Z,1000.66
2023-04-25T04:47:15.352Z,1000.64
2023-04-25T04:48:15.301Z,1000.56
2023-04-25T04:49:15.301Z,1000.59
2023-04-25T04:50:15.282Z,1000.62
2023-04-25T04:51:15.277Z,1000.63
2023-04-25T04:52:15.275Z,1000.65
2023-04-25T04:53:15.247Z,1000.65
2023-04-25T04:54:15.267Z,1000.65
2023-04-25T04:55:15.220Z,1000.66
2023-04-25T04:56:15.268Z,1000.72
2023-04-25T04:57:15.214Z,1000.69
2023-04-25T04:58:16.502Z,1000.68
2023-04-25T04:59:15.197Z,1000.71
2023-04-25T05:00:15.171Z,1000.69
2023-04-25T05:01:15.166Z,1000.71
2023-04-25T05:02:15.158Z,1000.66
2023-04-25T05:03:15.317Z,1000.65
2023-04-25T05:04:15.152Z,1000.70
2023-04-25T05:05:15.149Z,1000.67
2023-04-25T05:06:15.120Z,1000.73
2023-04-25T05:07:15.237Z,1000.70
2023-04-25T05:08:15.165Z,1000.65
2023-04-25T05:09:15.146Z,1000.68
2023-04-25T05:10:15.377Z,1000.68
2023-04-25T05:11:15.070Z,1000.69
2023-04-25T05:12:15.056Z,1000.72
2023-04-25T05:13:15.015Z,1000.70
2023-04-25T05:14:15.023Z,1000.71
2023-04-25T05:15:15.014Z,1000.69
2023-04-25T05:16:15.041Z,1000.70
2023-04-25T05:17:14.976Z,1000.70
2023-04-25T05:18:15.065Z,1000.73
2023-04-25T05:19:15.013Z,1000.70
2023-04-25T05:20:15.014Z,1000.75
2023-04-25T05:21:14.934Z,1000.71
2023-04-25T05:22:14.912Z,1000.75
2023-04-25T05:23:14.909Z,1000.71
2023-04-25T05:24:14.909Z,1000.74
2023-04-25T05:25:14.891Z,1000.71
2023-04-25T05:26:15.115Z,1000.78
2023-04-25T05:27:14.867Z,1000.72
2023-04-25T05:28:14.850Z,1000.78
2023-04-25T05:29:14.860Z,1000.76
2023-04-25T05:30:14.834Z,1000.78
2023-04-25T05:31:14.885Z,1000.76
2023-04-25T05:32:14.951Z,1000.80
2023-04-25T05:33:14.873Z,1000.79
2023-04-25T05:34:14.877Z,1000.76
2023-04-25T05:35:14.811Z,1000.79
2023-04-25T05:36:14.761Z,1000.78
2023-04-25T05:37:14.745Z,1000.79
2023-04-25T05:38:14.798Z,1000.78
2023-04-25T05:39:14.748Z,1000.77
2023-04-25T05:40:14.734Z,1000.81
2023-04-25T05:41:14.698Z,1000.82
2023-04-25T05:42:14.704Z,1000.83
2023-04-25T05:43:14.700Z,1000.81
2023-04-25T05:44:14.683Z,1000.78
2023-04-25T05:45:14.670Z,1000.79
2023-04-25T05:46:14.691Z,1000.77
2023-04-25T05:47:14.657Z,1000.85
2023-04-25T05:48:14.676Z,1000.85
2023-04-25T05:49:14.643Z,1000.87
2023-04-25T05:50:14.608Z,1000.92
2023-04-25T05:51:14.605Z,1000.93
2023-04-25T05:52:14.581Z,1000.88
2023-04-25T05:53:14.577Z,1000.89
2023-04-25T05:54:14.599Z,1000.91
2023-04-25T05:55:14.560Z,1000.93
2023-04-25T05:56:14.535Z,1000.93
2023-04-25T05:57:14.518Z,1000.91
2023-04-25T05:58:14.506Z,1000.94
2023-04-25T05:59:14.507Z,1000.91
2023-04-25T06:00:14.491Z,1000.91
2023-04-25T06:01:14.481Z,1000.98
2023-04-25T06:02:14.562Z,1000.95
2023-04-25T06:03:16.582Z,1000.98
2023-04-25T06:04:14.842Z,1000.96
2023-04-25T06:05:14.601Z,1001.00
2023-04-25T06:06:14.416Z,1001.03
2023-04-25T06:07:14.419Z,1001.03
2023-04-25T06:08:14.417Z,1001.03
2023-04-25T06:09:14.647Z,1001.05
2023-04-25T06:10:14.382Z,1001.09
2023-04-25T06:11:14.377Z,1001.07
2023-04-25T06:12:14.357Z,1001.07
2023-04-25T06:13:14.368Z,1001.11
2023-04-25T06:14:14.338Z,1001.06
2023-04-25T06:15:27.335Z,1001.10
2023-04-25T06:16:15.389Z,1001.06
2023-04-25T06:17:14.316Z,1001.08
2023-04-25T06:18:14.296Z,1001.09
2023-04-25T06:19:14.306Z,1001.15
2023-04-25T06:20:14.268Z,1001.08
2023-04-25T06:21:14.264Z,1001.13
2023-04-25T06:22:14.239Z,1001.13
2023-04-25T06:23:14.240Z,1001.08
2023-04-25T06:24:14.225Z,1001.10
2023-04-25T06:25:14.202Z,1001.15
2023-04-25T06:26:14.216Z,1001.12
2023-04-25T06:27:16.470Z,1001.18
2023-04-25T06:28:14.168Z,1001.14
2023-04-25T06:29:14.160Z,1001.17
2023-04-25T06:30:14.166Z,1001.13
2023-04-25T06:31:14.179Z,1001.17
2023-04-25T06:32:14.131Z,1001.18
2023-04-25T06:33:14.210Z,1001.15
2023-04-25T06:34:14.104Z,1001.15
2023-04-25T06:35:14.155Z,1001.15
2023-04-25T06:36:14.107Z,1001.12
2023-04-25T06:37:14.069Z,1001.15
2023-04-25T06:38:14.064Z,1001.12
2023-04-25T06:39:14.048Z,1001.12
2023-04-25T06:40:14.051Z,1001.16
2023-04-25T06:41:14.027Z,1001.13
2023-04-25T06:42:14.823Z,1001.14
2023-04-25T06:43:14.007Z,1001.12
2023-04-25T06:44:14.009Z,1001.14
2023-04-25T06:45:13.985Z,1001.15
2023-04-25T06:46:13.980Z,1001.11
2023-04-25T06:47:14.025Z,1001.16
2023-04-25T06:48:13.964Z,1001.20
2023-04-25T06:49:13.939Z,1001.10
2023-04-25T06:50:13.924Z,1001.16
2023-04-25T06:51:13.931Z,1001.12
2023-04-25T06:52:13.918Z,1001.16
2023-04-25T06:53:13.907Z,1001.16
2023-04-25T06:54:13.880Z,1001.11
2023-04-25T06:55:13.878Z,1001.17
2023-04-25T06:56:13.894Z,1001.19
2023-04-25T06:57:13.846Z,1001.18
2023-04-25T06:58:13.858Z,1001.20
2023-04-25T06:59:13.831Z,1001.18
2023-04-25T07:00:13.816Z,1001.18
2023-04-25T07:01:13.932Z,1001.18
2023-04-25T07:02:13.932Z,1001.19
2023-04-25T07:03:13.929Z,1001.21
2023-04-25T07:04:13.944Z,1001.19
2023-04-25T07:05:13.767Z,1001.19
2023-04-25T07:06:13.925Z,1001.21
2023-04-25T07:07:13.762Z,1001.26
2023-04-25T07:08:14.295Z,1001.24
2023-04-25T07:09:13.757Z,1001.21
2023-04-25T07:10:13.711Z,1001.24
2023-04-25T07:11:13.696Z,1001.25
2023-04-25T07:12:13.697Z,1001.26
2023-04-25T07:13:13.676Z,1001.28
2023-04-25T07:14:13.674Z,1001.22
2023-04-25T07:15:13.686Z,1001.25
2023-04-25T07:16:13.700Z,1001.22
2023-04-25T07:17:13.648Z,1001.26
2023-04-25T07:18:13.631Z,1001.30
2023-04-25T07:19:13.607Z,1001.33
2023-04-25T07:20:13.598Z,1001.38
2023-04-25T07:21:13.602Z,1001.36
2023-04-25T07:22:13.584Z,1001.39
2023-04-25T07:23:13.609Z,1001.41
2023-04-25T07:24:13.576Z,1001.43
2023-04-25T07:25:13.541Z,1001.43
2023-04-25T07:26:13.547Z,1001.41
2023-04-25T07:27:13.539Z,1001.49
2023-04-25T07:28:13.508Z,1001.43
2023-04-25T07:29:13.499Z,1001.47
2023-04-25T07:30:13.489Z,1001.47
2023-04-25T07:31:13.489Z,1001.53
2023-04-25T07:32:13.583Z,1001.51
2023-04-25T07:33:13.468Z,1001.47
2023-04-25T07:34:13.444Z,1001.54
2023-04-25T07:35:13.435Z,1001.55
2023-04-25T07:36:13.449Z,1001.50
2023-04-25T07:37:13.414Z,1001.57
2023-04-25T07:38:13.398Z,1001.54
2023-04-25T07:39:13.435Z,1001.60
2023-04-25T07:40:13.374Z,1001.64
2023-04-25T07:41:13.447Z,1001.60
2023-04-25T07:42:13.354Z,1001.56
2023-04-25T07:43:13.387Z,1001.56
2023-04-25T07:44:13.362Z,1001.57
2023-04-25T07:45:13.378Z,1001.62
2023-04-25T07:46:13.377Z,1001.62
2023-04-25T07:47:13.302Z,1001.66
2023-04-25T07:48:13.307Z,1001.66
2023-04-25T07:49:13.279Z,1001.66
2023-04-25T07:50:13.289Z,1001.71
2023-04-25T07:51:13.250Z,1001.69
2023-04-25T07:52:13.250Z,1001.68
2023-04-25T07:53:13.284Z,1001.71
2023-04-25T07:54:13.239Z,1001.71
2023-04-25T07:55:13.395Z,1001.69
2023-04-25T07:56:13.210Z,1001.69
2023-04-25T07:57:13.192Z,1001.70
2023-04-25T07:58:13.189Z,1001.72
2023-04-25T07:59:13.180Z,1001.71
2023-04-25T08:00:13.266Z,1001.72
2023-04-25T08:01:13.138Z,1001.72
2023-04-25T08:02:13.894Z,1001.72
2023-04-25T08:03:13.299Z,1001.76
2023-04-25T08:04:13.231Z,1001.74
2023-04-25T08:05:13.407Z,1001.76
2023-04-25T08:06:13.312Z,1001.86
2023-04-25T08:07:13.077Z,1001.87
2023-04-25T08:08:13.102Z,1001.88
2023-04-25T08:09:13.073Z,1001.86
2023-04-25T08:10:13.046Z,1001.82
2023-04-25T08:11:13.066Z,1001.82
2023-04-25T08:12:13.059Z,1001.91
2023-04-25T08:13:13.008Z,1001.95
2023-04-25T08:14:13.001Z,1001.92
2023-04-25T08:15:12.988Z,1001.88
2023-04-25T08:16:13.018Z,1001.93
2023-04-25T08:17:12.967Z,1001.98
2023-04-25T08:18:14.179Z,1001.92
2023-04-25T08:19:12.938Z,1001.96
2023-04-25T08:20:12.927Z,1001.99
2023-04-25T08:21:12.962Z,1001.91
2023-04-25T08:22:12.908Z,1001.97
2023-04-25T08:23:12.910Z,1001.92
2023-04-25T08:24:12.889Z,1001.95
2023-04-25T08:25:12.875Z,1001.86
2023-04-25T08:26:12.883Z,1001.89
2023-04-25T08:27:12.883Z,1001.93
2023-04-25T08:28:12.891Z,1001.98
2023-04-25T08:29:12.830Z,1002.03
2023-04-25T08:30:12.827Z,1001.98
2023-04-25T08:31:12.831Z,1002.06
2023-04-25T08:32:12.859Z,1002.08
2023-04-25T08:33:12.885Z,1002.11
2023-04-25T08:34:12.797Z,1002.16
2023-04-25T08:35:12.774Z,1002.20
2023-04-25T08:36:15.732Z,1002.20
2023-04-25T08:37:12.744Z,1002.19
2023-04-25T08:38:12.738Z,1002.14
2023-04-25T08:39:12.775Z,1002.16
2023-04-25T08:40:12.710Z,1002.22
2023-04-25T08:41:12.700Z,1002.17
2023-04-25T08:42:12.710Z,1002.19
2023-04-25T08:43:12.849Z,1002.20
2023-04-25T08:44:12.676Z,1002.20
2023-04-25T08:45:12.658Z,1002.18
2023-04-25T08:46:12.678Z,1002.20
2023-04-25T08:47:12.687Z,1002.22
2023-04-25T08:48:12.659Z,1002.19
2023-04-25T08:49:12.618Z,1002.19
2023-04-25T08:50:12.601Z,1002.31
2023-04-25T08:51:12.622Z,1002.28
2023-04-25T08:52:12.685Z,1002.28
2023-04-25T08:53:12.849Z,1002.31
2023-04-25T08:54:23.427Z,1002.36
2023-04-25T08:55:13.563Z,1002.29
2023-04-25T08:56:12.525Z,1002.36
2023-04-25T08:57:12.533Z,1002.42
2023-04-25T08:58:12.534Z,1002.40
2023-04-25T08:59:12.641Z,1002.39
2023-04-25T09:00:12.496Z,1002.43
2023-04-25T09:01:12.557Z,1002.51
2023-04-25T09:02:12.498Z,1002.53
2023-04-25T09:03:12.558Z,1002.65
2023-04-25T09:04:12.586Z,1002.42
2023-04-25T09:05:22.053Z,1002.39
2023-04-25T09:06:13.408Z,1002.46
2023-04-25T09:07:12.408Z,1002.41
2023-04-25T09:08:12.393Z,1002.46
2023-04-25T09:09:12.402Z,1002.47
2023-04-25T09:10:12.391Z,1002.59
2023-04-25T09:11:12.490Z,1002.40
2023-04-25T09:12:12.360Z,1002.55
2023-04-25T09:13:12.335Z,1002.62
2023-04-25T09:14:12.352Z,1002.66
2023-04-25T09:15:12.444Z,1002.61
2023-04-25T09:16:12.363Z,1002.59
2023-04-25T09:17:12.396Z,1003.02
2023-04-25T09:18:12.354Z,1003.09
2023-04-25T09:19:12.276Z,1003.07
2023-04-25T09:20:12.280Z,1003.07
2023-04-25T09:21:14.234Z,1002.93
2023-04-25T09:22:12.239Z,1002.92
2023-04-25T09:23:12.228Z,1002.94
2023-04-25T09:24:12.234Z,1002.99
2023-04-25T09:25:12.206Z,1002.63
2023-04-25T09:26:12.195Z,1003.03
2023-04-25T09:27:12.186Z,1003.24
2023-04-25T09:28:12.180Z,1002.68
2023-04-25T09:29:12.171Z,1002.65
2023-04-25T09:30:12.160Z,1002.63
2023-04-25T09:31:12.215Z,1003.04
2023-04-25T09:32:12.313Z,1002.79
2023-04-25T09:33:12.238Z,1002.72
2023-04-25T09:34:12.110Z,1002.74
2023-04-25T09:35:12.117Z,1002.75
2023-04-25T09:36:12.219Z,1002.68
2023-04-25T09:37:12.130Z,1002.75
2023-04-25T09:38:12.074Z,1002.67
2023-04-25T09:39:12.124Z,1002.72
2023-04-25T09:40:12.048Z,1002.72
2023-04-25T09:41:12.292Z,1002.72
2023-04-25T09:42:12.018Z,1002.76
2023-04-25T09:43:12.010Z,1003.40
2023-04-25T09:44:12.905Z,1003.24
2023-04-25T09:45:12.020Z,1003.37
2023-04-25T09:46:12.048Z,1002.96
2023-04-25T09:47:12.086Z,1002.76
2023-04-25T09:48:11.969Z,1002.83
2023-04-25T09:49:11.952Z,1002.75
2023-04-25T09:50:11.971Z,1002.76
2023-04-25T09:51:11.919Z,1002.67
2023-04-25T09:52:11.913Z,1002.68
2023-04-25T09:53:11.912Z,1002.68
2023-04-25T09:54:11.942Z,1002.71
2023-04-25T09:55:11.895Z,1002.72
2023-04-25T09:56:11.986Z,1002.78
2023-04-25T09:57:11.888Z,1002.85
2023-04-25T09:58:11.875Z,1002.80
2023-04-25T09:59:11.837Z,1002.81
2023-04-25T10:00:11.825Z,1002.83
2023-04-25T10:01:11.917Z,1002.71
2023-04-25T10:02:11.841Z,1002.78
2023-04-25T10:03:11.898Z,1002.87
2023-04-25T10:04:11.910Z,1002.80
2023-04-25T10:05:12.092Z,1002.87
2023-04-25T10:06:11.782Z,1002.87
2023-04-25T10:07:11.818Z,1002.89
2023-04-25T10:08:11.737Z,1002.82
2023-04-25T10:09:11.731Z,1002.87
2023-04-25T10:10:11.836Z,1002.85
2023-04-25T10:11:11.728Z,1002.81
2023-04-25T10:12:11.691Z,1002.94
2023-04-25T10:13:11.682Z,1002.99
2023-04-25T10:14:11.667Z,1002.93
2023-04-25T10:15:11.781Z,1003.29
2023-04-25T10:16:11.750Z,1002.92
2023-04-25T10:17:11.646Z,1002.93
2023-04-25T10:18:11.646Z,1002.92
2023-04-25T10:19:11.693Z,1002.84
2023-04-25T10:20:12.027Z,1002.88
2023-04-25T10:21:11.591Z,1002.87
2023-04-25T10:22:11.580Z,1002.96
2023-04-25T10:23:11.587Z,1002.97
2023-04-25T10:24:11.621Z,1002.91
2023-04-25T10:25:11.546Z,1002.98
2023-04-25T10:26:11.552Z,1003.00
2023-04-25T10:27:11.532Z,1002.95
2023-04-25T10:28:11.513Z,1002.93
2023-04-25T10:29:11.695Z,1002.97
2023-04-25T10:30:11.494Z,1002.92
2023-04-25T10:31:11.627Z,1003.02
2023-04-25T10:32:11.598Z,1003.01
2023-04-25T10:33:11.467Z,1002.97
2023-04-25T10:34:11.473Z,1002.97
2023-04-25T10:35:11.538Z,1002.93
2023-04-25T10:36:11.424Z,1002.97
2023-04-25T10:37:11.421Z,1002.94
2023-04-25T10:38:11.414Z,1002.95
2023-04-25T10:39:11.441Z,1002.98
2023-04-25T10:40:11.380Z,1003.08
2023-04-25T10:41:11.375Z,1003.04
2023-04-25T10:42:11.365Z,1002.98
2023-04-25T10:43:12.380Z,1003.12
2023-04-25T10:44:11.455Z,1003.02
2023-04-25T10:45:11.331Z,1002.98
2023-04-25T10:46:11.382Z,1002.99
2023-04-25T10:47:11.472Z,1003.02
2023-04-25T10:48:11.295Z,1003.06
2023-04-25T10:49:13.069Z,1003.05
2023-04-25T10:50:11.274Z,1003.14
2023-04-25T10:51:11.347Z,1003.15
2023-04-25T10:52:11.277Z,1003.14
2023-04-25T10:53:11.236Z,1003.17
2023-04-25T10:54:11.241Z,1003.20
2023-04-25T10:55:11.219Z,1003.15
2023-04-25T10:56:12.471Z,1003.22
2023-04-25T10:57:11.202Z,1003.24
2023-04-25T10:58:11.184Z,1003.23
2023-04-25T10:59:11.331Z,1003.30
2023-04-25T11:00:11.200Z,1003.31
2023-04-25T11:01:11.204Z,1003.28
2023-04-25T11:02:11.245Z,1003.33
2023-04-25T11:03:11.269Z,1003.33
2023-04-25T11:04:11.238Z,1003.24
2023-04-25T11:05:11.097Z,1003.32
2023-04-25T11:06:11.105Z,1003.23
2023-04-25T11:07:11.123Z,1003.31
2023-04-25T11:08:11.087Z,1003.29
2023-04-25T11:09:11.082Z,1003.24
2023-04-25T11:10:11.082Z,1003.35
2023-04-25T11:11:11.034Z,1003.29
2023-04-25T11:12:11.045Z,1003.24
2023-04-25T11:13:11.031Z,1003.33
2023-04-25T11:14:11.000Z,1003.29
2023-04-25T11:15:10.992Z,1003.26
2023-04-25T11:16:13.205Z,1003.32
2023-04-25T11:17:11.060Z,1003.29
2023-04-25T11:18:11.021Z,1003.34
2023-04-25T11:19:10.954Z,1003.33
2023-04-25T11:20:12.995Z,1003.24
2023-04-25T11:21:11.002Z,1003.35
2023-04-25T11:22:10.928Z,1003.34
2023-04-25T11:23:11.011Z,1003.38
2023-04-25T11:24:10.890Z,1003.38
2023-04-25T11:25:10.883Z,1003.45
2023-04-25T11:26:10.897Z,1003.50
2023-04-25T11:27:10.865Z,1003.53
2023-04-25T11:28:11.071Z,1003.60
2023-04-25T11:29:10.850Z,1003.58
2023-04-25T11:30:10.884Z,1003.57
2023-04-25T11:31:10.820Z,1003.60
2023-04-25T11:32:10.864Z,1003.67
2023-04-25T11:33:10.859Z,1003.65
2023-04-25T11:34:10.783Z,1003.65
2023-04-25T11:35:10.772Z,1003.65
2023-04-25T11:36:10.802Z,1003.69
2023-04-25T11:37:10.751Z,1003.66
2023-04-25T11:38:10.735Z,1003.69
2023-04-25T11:39:10.758Z,1003.75
2023-04-25T11:40:10.754Z,1003.71
2023-04-25T11:41:10.719Z,1003.73
2023-04-25T11:42:13.839Z,1003.73
2023-04-25T11:43:10.716Z,1003.72
2023-04-25T11:44:10.683Z,1003.79
2023-04-25T11:45:10.667Z,1003.83
2023-04-25T11:46:10.735Z,1003.79
2023-04-25T11:47:10.682Z,1003.79
2023-04-25T11:48:10.670Z,1003.80
2023-04-25T11:49:10.617Z,1003.75
2023-04-25T11:50:10.606Z,1003.83
2023-04-25T11:51:10.598Z,1003.81
2023-04-25T11:52:10.581Z,1003.81
2023-04-25T11:53:10.586Z,1003.86
2023-04-25T11:54:10.588Z,1003.83
2023-04-25T11:55:11.472Z,1003.80
2023-04-25T11:56:10.623Z,1003.81
2023-04-25T11:57:10.525Z,1003.75
2023-04-25T11:58:10.529Z,1003.80
2023-04-25T11:59:10.928Z,1003.78
2023-04-25T12:00:10.484Z,1003.77
2023-04-25T12:01:10.507Z,1003.84
2023-04-25T12:02:10.520Z,1003.86
2023-04-25T12:03:10.695Z,1003.80
2023-04-25T12:04:10.702Z,1003.85
2023-04-25T12:05:22.304Z,1003.81